Appleton, Illinois
Current Conditions -  °F | °C
As of 6:15 AM on Friday 24 Oct 2014 (Local Time) from KGBG Reporting Station
Moderate Fog Moderate Fog  
Wind Chill: 47°   Ceiling: 300
Heat Index: 47°   Visibility: 0.25mi
Dew Point: 47°   Wind: 0mph
Humidity: 99%   Direction: NA
Pressure: 30.06"   Gusts: NA
Location:  40.9602°N, 90.1517°W
Report Text: KGBG 241115Z AUTO 00000KT 1/4SM FG OVC003 09/08 A3006 RMK AO2 T00850084
Loading
Personal Weather Stations






























Interactive Weather Map
Tropical Storm Tracking
New forecast layout! Learn more

10-Day Weather Forecast

Advertisements
Track Severe Weather on mobile